AirNav   Pilot Hours Calculator
 
 1368 users online  

7PN7 Wellspan York Hospital Alternate Heliport
York, Pennsylvania, USA

GOING TO YORK?


FAA INFORMATION EFFECTIVE 05 DECEMBER 2019

Location

FAA Identifier: 7PN7
Lat/Long: 39-56-38.0400N 076-44-32.4000W
39-56.634000N 076-44.540000W
39.9439000,-76.7423333
(estimated)
Elevation: 408 ft. / 124 m (estimated)
From city: 1 mile SW of YORK, PA
Time zone: UTC -5 (UTC -4 during Daylight Saving Time)
Zip code: 17403

Heliport Operations

Heliport use: Private use. Permission required prior to landing
Activation date: 09/2004
Control tower: no
ARTCC: NEW YORK CENTER
FSS: WILLIAMSPORT FLIGHT SERVICE STATION
Attendance: UNATNDD
Wind indicator: yes
Segmented circle: no
Lights: FOR PERIMETER LGTS CTC HOSP SCTY 717-851-4444.

Heliport Communications

WX ASOS at THV (6 nm W): 119.275 (717-792-5529)
WX ASOS at MDT (15 nm N): PHONE 717-944-1372
WX ASOS at CXY (17 nm N): PHONE 717-770-0880

Nearby radio navigation aids

VOR radial/distance  VOR name  Freq  Var
LRPr252/23.3LANCASTER VOR/DME117.3009W
HARr155/26.2HARRISBURG VORTAC112.5010W
EMIr030/29.1WESTMINSTER VORTAC117.9008W
RAVr201/37.2RAVINE VORTAC114.6011W

 
NDB name  Hdg/Dist  Freq  Var  ID
BELLGROVE206/30.832810WBZJ -... --.. .---
ELLICOTT013/39.437111WFND ..-. -. -..

Heliport Services

Runway Information

Helipad H1

Dimensions: 40 x 40 ft. / 12 x 12 m
Surface: concrete
Runway edge lights: PERI
Latitude: 39-56.634000N
Longitude: 076-44.540000W
Elevation: 408.0 ft.
Traffic pattern: leftleft

Heliport Ownership and Management from official FAA records

Ownership: Privately-owned
Owner: CHRIS KRICHTEN
1001 S. GEORGE ST., 45 MONUMENT ROAD
YORK, PA 17405
Phone (717) 851-2311
Manager: CHRISTOPHER KRICHTEN
1001 S. GEORGE ST.
YORK, PA 17405
Phone (717) 851-5055

Heliport Operational Statistics

Aircraft based on the field: 5
Helicopters: 5
    

Additional Remarks

FOR CD CTC HARRISBURG APCH AT 800-932-0712.

Instrument Procedures

There are no published instrument procedures at 7PN7.

Some nearby airports with instrument procedures:

KTHV - York Airport (6 nm W)
N71 - Donegal Springs Airpark (12 nm NE)
KMDT - Harrisburg International Airport (15 nm N)
KCXY - Capital City Airport (17 nm N)
58N - Reigle Field Airport (22 nm N)
 
Loc | Ops | Rwys | IFR | FBO | Links
Com | Nav | Svcs | Stats | Notes
Area around 7PN7 (Wellspan York Hospital Alternate Heliport)
 
Road maps at: MapQuest Bing Google
 
Aerial photo
No photo
 
Sectional chart

 
Airport distance calculator
Flying to Wellspan York Hospital Alternate Heliport? Find the distance to fly.

From to 7PN7

Sunrise and sunset
Times for 06-Dec-2019
 Local
(UTC-5)
 Zulu
(UTC)
Morning civil twilight06:4511:45
Sunrise07:1512:15
Sunset16:4121:41
Evening civil twilight17:1122:11

Current date and time
Zulu (UTC)  06-Dec-2019 15:32:15
Local (UTC-5)  06-Dec-2019 10:32:15
 
METAR
KTHV 
7nm W 
061453Z AUTO 21009KT 180V240 10SM CLR 06/M04 A3008 RMK AO2 SLP193 T00561044 56010
KMDT 
15nm N 
061456Z 20011G17KT 10SM SCT120 OVC200 07/M03 A3007 RMK AO2 SLP187 T00671033 58012
KCXY 
17nm N 
061456Z 23007KT 10SM CLR 07/M04 A3008 RMK AO2 SLP189 T00721039 58010
TAF
KMDT 
15nm N 
061159Z 0612/0712 10004KT P6SM BKN100 FM061700 26007KT P6SM BKN070 FM062000 28010KT P6SM OVC040 FM070000 31011G17KT P6SM SCT040
NOTAMs
Click for the latest NOTAMs
NOTAMs are issued by the DoD/FAA and will open in a separate window not controlled by AirNav.

 

 
 

Would you like to see your business listed on this page?

 If your business provides an interesting product or service to pilots, flight crews, aircraft, or users of the Wellspan York Hospital Alternate Heliport, you should consider listing it here.  To start the listing process, click on the button below
 
Add a business
 

Other Pages about Wellspan York Hospital Alternate Heliport

Update a link
 
Copyright © AirNav, LLC. All rights reserved. Privacy Policy  Contact